Time;durP1;ratioP1;P1;durP2;ratioP2;P2;SDS_P1;SDS_P2;PMS_P1;PMS_P2;Temp;Humidity;BMP_temperature;BMP_pressure;BME280_temperature;BME280_humidity;BME280_pressure;Samples;Min_cycle;Max_cycle;Signal;HPM_P1;HPM_P2
2023/09/22 00:00:41;;;;;;;3.38;2.47;;;18.70;68.50;;;;;;4986889;28;20039;-51
2023/09/22 00:03:13;;;;;;;2.80;2.40;;;18.60;68.50;;;;;;4986907;28;20065;-50
2023/09/22 00:05:40;;;;;;;3.35;2.30;;;18.60;68.50;;;;;;4986942;28;20046;-51
2023/09/22 00:08:07;;;;;;;2.67;2.20;;;18.50;68.30;;;;;;4987401;28;20041;-51
2023/09/22 00:10:34;;;;;;;3.85;2.85;;;18.50;68.20;;;;;;4991804;28;20133;-51
2023/09/22 00:13:05;;;;;;;3.80;2.63;;;18.40;68.20;;;;;;4988946;28;20479;-49
2023/09/22 00:15:34;;;;;;;4.35;2.70;;;18.40;68.40;;;;;;4992130;28;20089;-50
2023/09/22 00:18:01;;;;;;;4.88;3.15;;;18.30;68.40;;;;;;4992992;28;20472;-50
2023/09/22 00:20:29;;;;;;;3.35;2.33;;;18.20;68.60;;;;;;4987802;28;20125;-52
2023/09/22 00:22:55;;;;;;;3.25;2.92;;;18.20;68.80;;;;;;4984398;28;20043;-49
2023/09/22 00:25:23;;;;;;;3.28;2.60;;;18.20;69.00;;;;;;4991913;28;20097;-50
2023/09/22 00:27:54;;;;;;;4.63;2.60;;;18.10;69.20;;;;;;4992696;28;20072;-50
2023/09/22 00:30:21;;;;;;;2.95;2.53;;;18.10;69.40;;;;;;4982816;28;20044;-46
2023/09/22 00:32:48;;;;;;;3.58;2.28;;;18.10;69.30;;;;;;4982651;28;20039;-48
2023/09/22 00:35:15;;;;;;;3.40;2.83;;;18.20;69.60;;;;;;4984684;28;20042;-50
2023/09/22 00:37:44;;;;;;;4.55;2.90;;;18.20;69.70;;;;;;4988387;28;20042;-51
2023/09/22 00:40:14;;;;;;;2.60;2.40;;;18.10;69.70;;;;;;4990695;28;20062;-47
2023/09/22 00:42:40;;;;;;;3.55;2.85;;;18.20;69.70;;;;;;4985287;28;20038;-48
2023/09/22 00:45:08;;;;;;;2.95;2.45;;;18.20;69.70;;;;;;4987149;28;20687;-47
2023/09/22 00:47:36;;;;;;;3.42;3.00;;;18.20;69.70;;;;;;4986023;28;20120;-50
2023/09/22 00:50:03;;;;;;;3.83;2.42;;;18.20;69.80;;;;;;4991229;28;20041;-48
2023/09/22 00:52:30;;;;;;;2.63;2.42;;;18.20;70.00;;;;;;4985297;28;20722;-49
2023/09/22 00:55:06;;;;;;;2.95;2.72;;;18.20;70.00;;;;;;4989837;28;20046;-52
2023/09/22 00:57:36;;;;;;;3.55;2.47;;;18.20;70.30;;;;;;4986514;28;20073;-49
2023/09/22 01:00:04;;;;;;;2.53;2.25;;;18.20;70.30;;;;;;4989117;28;20042;-48
2023/09/22 01:02:31;;;;;;;3.10;2.47;;;18.30;70.40;;;;;;4986091;28;20186;-50
2023/09/22 01:04:58;;;;;;;4.00;3.08;;;18.30;70.30;;;;;;4983387;28;20047;-48
2023/09/22 01:07:25;;;;;;;3.70;2.55;;;18.30;70.30;;;;;;5000843;28;20050;-48
2023/09/22 01:09:52;;;;;;;4.07;2.33;;;18.30;70.10;;;;;;4990456;28;20042;-47
2023/09/22 01:12:21;;;;;;;3.70;2.00;;;18.40;69.80;;;;;;4987064;28;20039;-49
2023/09/22 01:14:48;;;;;;;3.17;2.15;;;18.30;69.60;;;;;;4987697;28;20042;-50
2023/09/22 01:17:15;;;;;;;2.33;2.00;;;18.30;69.30;;;;;;4990906;28;20508;-51
2023/09/22 01:19:46;;;;;;;5.53;2.47;;;18.20;69.20;;;;;;4986964;28;20042;-50
2023/09/22 01:22:12;;;;;;;2.25;1.50;;;18.20;69.10;;;;;;4983648;28;20515;-48
2023/09/22 01:24:42;;;;;;;2.40;1.70;;;18.10;69.00;;;;;;4989610;28;20042;-48
2023/09/22 01:27:09;;;;;;;2.10;1.33;;;18.00;68.80;;;;;;4991806;28;20385;-51
2023/09/22 01:29:39;;;;;;;3.47;1.92;;;18.00;68.90;;;;;;4990534;28;20046;-51
2023/09/22 01:32:09;;;;;;;2.20;1.55;;;17.90;68.90;;;;;;4987334;28;20038;-49
2023/09/22 01:34:36;;;;;;;2.92;2.20;;;17.90;69.10;;;;;;4987501;28;20038;-50
2023/09/22 01:37:07;;;;;;;2.30;1.48;;;17.80;69.10;;;;;;4987455;28;20050;-51
2023/09/22 01:39:37;;;;;;;3.05;2.35;;;17.80;69.10;;;;;;4985315;28;20058;-48
2023/09/22 01:42:08;;;;;;;2.70;1.88;;;17.70;69.20;;;;;;4988325;28;20045;-48
2023/09/22 01:44:35;;;;;;;1.98;1.63;;;17.60;69.20;;;;;;4986648;28;20599;-52
2023/09/22 01:47:02;;;;;;;2.25;1.83;;;17.60;69.40;;;;;;4987841;28;20097;-50
2023/09/22 01:49:30;;;;;;;2.08;1.67;;;17.60;69.50;;;;;;4989357;28;20516;-52
2023/09/22 01:51:58;;;;;;;3.60;1.83;;;17.50;69.60;;;;;;4985861;28;20035;-49
2023/09/22 01:54:26;;;;;;;2.10;1.55;;;17.40;69.60;;;;;;4986938;28;20048;-52
2023/09/22 01:56:54;;;;;;;2.47;2.20;;;17.40;69.80;;;;;;4989924;28;20543;-48
2023/09/22 01:59:25;;;;;;;2.30;2.10;;;17.40;69.80;;;;;;4984540;28;20054;-49
2023/09/22 02:01:54;;;;;;;3.33;1.83;;;17.50;70.00;;;;;;4983322;28;20101;-51
2023/09/22 02:04:22;;;;;;;2.70;1.98;;;17.30;70.00;;;;;;4983823;28;20046;-48
2023/09/22 02:06:48;;;;;;;4.75;1.83;;;17.30;70.10;;;;;;4971986;28;20121;-46
2023/09/22 02:09:18;;;;;;;3.10;1.88;;;17.20;70.30;;;;;;4987971;28;20452;-49
2023/09/22 02:11:47;;;;;;;3.13;1.67;;;17.20;70.30;;;;;;4984444;28;20908;-51
2023/09/22 02:14:13;;;;;;;3.97;2.20;;;17.20;70.30;;;;;;4988615;28;20591;-47
2023/09/22 02:16:40;;;;;;;2.60;2.17;;;17.20;70.40;;;;;;4989285;28;20117;-48
2023/09/22 02:19:08;;;;;;;2.95;1.83;;;17.20;70.40;;;;;;4989673;28;20519;-49
2023/09/22 02:21:37;;;;;;;2.72;1.63;;;17.10;70.40;;;;;;4985161;28;20054;-51
2023/09/22 02:24:06;;;;;;;2.75;1.70;;;17.10;70.50;;;;;;4987784;28;20070;-49
2023/09/22 02:26:33;;;;;;;7.68;3.28;;;17.10;70.60;;;;;;4972063;28;20136;-52
2023/09/22 02:29:03;;;;;;;1.95;1.58;;;17.10;70.60;;;;;;4976821;28;20046;-49
2023/09/22 02:31:34;;;;;;;1.83;1.40;;;17.10;70.70;;;;;;4984556;28;20054;-51
2023/09/22 02:34:20;;;;;;;1.60;1.50;;;17.10;70.70;;;;;;4985550;28;20050;-51
2023/09/22 02:36:49;;;;;;;1.45;1.33;;;17.10;70.70;;;;;;4988744;28;20109;-51
2023/09/22 02:39:16;;;;;;;4.50;2.10;;;17.10;70.70;;;;;;4981278;28;20489;-51
2023/09/22 02:41:43;;;;;;;2.03;1.67;;;17.10;70.80;;;;;;4989471;28;20504;-50
2023/09/22 02:44:12;;;;;;;2.30;1.23;;;17.20;71.00;;;;;;4982148;28;20066;-49
2023/09/22 02:46:42;;;;;;;1.52;1.38;;;17.20;70.80;;;;;;4986188;28;20183;-51
2023/09/22 02:49:15;;;;;;;2.28;1.50;;;17.20;70.80;;;;;;4989293;28;20034;-49
2023/09/22 02:51:43;;;;;;;3.38;1.90;;;17.30;70.70;;;;;;4985998;28;20043;-50
2023/09/22 02:54:13;;;;;;;2.40;1.20;;;17.20;70.50;;;;;;4987187;28;20086;-50
2023/09/22 02:56:40;;;;;;;2.90;1.40;;;17.30;70.50;;;;;;4985426;28;20137;-51
2023/09/22 02:59:18;;;;;;;1.75;1.50;;;17.20;70.30;;;;;;4982807;28;20045;-48
2023/09/22 03:01:45;;;;;;;3.50;1.60;;;17.20;70.20;;;;;;4983534;28;20042;-53
2023/09/22 03:04:18;;;;;;;2.63;1.70;;;17.20;70.00;;;;;;5071739;23;20040;-47
2023/09/22 03:06:45;;;;;;;3.53;1.92;;;17.20;70.00;;;;;;5034419;28;20037;-47
2023/09/22 03:09:12;;;;;;;2.20;1.17;;;17.20;70.00;;;;;;5023254;28;20096;-45
2023/09/22 03:11:40;;;;;;;2.05;1.48;;;17.10;69.90;;;;;;5041472;28;20048;-47
2023/09/22 03:14:07;;;;;;;1.27;1.17;;;17.10;69.80;;;;;;5022892;28;20041;-47
2023/09/22 03:16:39;;;;;;;1.20;1.05;;;17.10;69.90;;;;;;5010131;28;20046;-50
2023/09/22 03:19:09;;;;;;;7.03;1.40;;;17.10;70.00;;;;;;5010737;28;20087;-47
2023/09/22 03:21:39;;;;;;;1.60;1.00;;;17.10;70.10;;;;;;5023563;28;20052;-47
2023/09/22 03:24:08;;;;;;;1.17;0.90;;;17.00;70.10;;;;;;5022815;28;20121;-47
2023/09/22 03:26:37;;;;;;;1.90;1.25;;;17.00;70.20;;;;;;5010407;28;20077;-46
2023/09/22 03:29:09;;;;;;;1.23;1.10;;;17.00;70.30;;;;;;5042332;28;20034;-47
2023/09/22 03:31:38;;;;;;;2.80;1.38;;;17.00;70.40;;;;;;5007543;28;20120;-47
2023/09/22 03:34:05;;;;;;;1.75;1.63;;;17.00;70.40;;;;;;5029181;28;20045;-49
2023/09/22 03:36:35;;;;;;;1.45;1.35;;;17.00;70.40;;;;;;5026261;28;20107;-47
2023/09/22 03:39:03;;;;;;;3.53;1.42;;;17.00;70.40;;;;;;5027131;28;20038;-49
2023/09/22 03:41:30;;;;;;;4.05;1.35;;;17.10;70.40;;;;;;5028820;28;20068;-46
2023/09/22 03:43:57;;;;;;;1.88;1.50;;;17.10;70.40;;;;;;5023544;28;20124;-47
2023/09/22 03:46:24;;;;;;;3.13;1.08;;;17.10;70.30;;;;;;5028173;28;20041;-47
2023/09/22 03:48:55;;;;;;;1.05;0.90;;;17.10;70.30;;;;;;5027870;28;20040;-51
2023/09/22 03:51:22;;;;;;;1.15;1.05;;;17.10;70.40;;;;;;5005150;28;20041;-50
2023/09/22 03:53:56;;;;;;;2.13;1.23;;;17.10;70.40;;;;;;5023807;28;20051;-51
2023/09/22 03:56:28;;;;;;;1.10;0.85;;;17.10;70.40;;;;;;5026224;28;20069;-47
2023/09/22 03:58:55;;;;;;;2.13;1.23;;;17.10;70.30;;;;;;5026406;28;20689;-51
2023/09/22 04:01:26;;;;;;;0.75;0.73;;;17.10;70.20;;;;;;5028458;28;20041;-51
2023/09/22 04:03:55;;;;;;;;;;;17.20;70.20;;;;;;5033853;28;20049;-48
2023/09/22 04:06:22;;;;;;;1.27;0.65;;;17.20;70.20;;;;;;5025853;28;19921;-50
2023/09/22 04:08:56;;;;;;;2.13;0.80;;;17.20;69.90;;;;;;5024438;28;20041;-49
2023/09/22 04:11:24;;;;;;;2.40;1.17;;;17.20;70.00;;;;;;5026449;28;20419;-47
2023/09/22 04:13:53;;;;;;;2.00;1.02;;;17.20;70.00;;;;;;5013045;28;20033;-47
2023/09/22 04:16:20;;;;;;;1.85;0.95;;;17.20;70.00;;;;;;5024542;28;20038;-47
2023/09/22 04:18:53;;;;;;;1.30;1.02;;;17.20;70.00;;;;;;5013771;28;20120;-50
2023/09/22 04:21:23;;;;;;;2.28;0.98;;;17.20;70.00;;;;;;5037933;28;20052;-49
2023/09/22 04:23:57;;;;;;;1.92;1.00;;;17.20;70.00;;;;;;5028032;28;20072;-47
2023/09/22 04:26:29;;;;;;;2.35;1.00;;;17.20;70.00;;;;;;5030791;28;20034;-49
2023/09/22 04:28:59;;;;;;;1.63;0.80;;;17.20;70.00;;;;;;5027193;28;20125;-50
2023/09/22 04:31:28;;;;;;;2.58;0.90;;;17.20;70.00;;;;;;5029268;28;20048;-49
2023/09/22 04:34:01;;;;;;;1.83;0.63;;;17.20;70.00;;;;;;5026599;28;20117;-51
2023/09/22 04:36:27;;;;;;;1.73;0.82;;;17.20;70.00;;;;;;5026819;28;20030;-47
2023/09/22 04:38:54;;;;;;;3.25;0.98;;;17.20;70.00;;;;;;5029693;28;20046;-46
2023/09/22 04:41:21;;;;;;;2.50;0.90;;;17.20;69.80;;;;;;5029949;28;20069;-51
2023/09/22 04:43:48;;;;;;;1.15;0.60;;;17.20;69.80;;;;;;5022543;28;20045;-51
2023/09/22 04:46:15;;;;;;;2.95;0.95;;;17.20;69.80;;;;;;5019592;28;20506;-48
2023/09/22 04:48:42;;;;;;;1.48;0.80;;;17.20;69.70;;;;;;5027329;28;20232;-52
2023/09/22 04:51:10;;;;;;;1.95;0.63;;;17.20;69.80;;;;;;5026043;28;20041;-48
2023/09/22 04:53:36;;;;;;;2.67;0.85;;;17.20;69.90;;;;;;5027459;28;20539;-52
2023/09/22 04:56:04;;;;;;;1.80;0.70;;;17.20;70.00;;;;;;5029242;28;20073;-48
2023/09/22 04:58:31;;;;;;;0.73;0.70;;;17.20;69.90;;;;;;5029219;28;20056;-50
2023/09/22 05:01:01;;;;;;;3.60;1.20;;;17.20;69.80;;;;;;5027450;28;20042;-48
2023/09/22 05:03:28;;;;;;;1.88;0.55;;;17.20;69.80;;;;;;5028543;28;20055;-50
2023/09/22 05:06:06;;;;;;;1.75;0.57;;;17.20;69.80;;;;;;5026426;28;20037;-52
2023/09/22 05:08:38;;;;;;;1.15;0.70;;;17.20;69.80;;;;;;5018616;28;20073;-50
2023/09/22 05:11:08;;;;;;;2.17;0.88;;;17.20;69.70;;;;;;5021253;28;20072;-50
2023/09/22 05:13:35;;;;;;;1.33;0.55;;;17.10;69.60;;;;;;5022694;28;20062;-47
2023/09/22 05:16:13;;;;;;;1.40;0.60;;;17.10;69.70;;;;;;5022062;28;20523;-47
2023/09/22 05:18:39;;;;;;;1.50;0.70;;;17.10;69.90;;;;;;5021815;28;20045;-47
2023/09/22 05:21:09;;;;;;;2.28;0.70;;;17.10;69.70;;;;;;5020594;28;20049;-52
2023/09/22 05:23:36;;;;;;;0.90;0.60;;;17.10;69.80;;;;;;5027825;28;20104;-49
2023/09/22 05:26:07;;;;;;;3.60;0.68;;;17.10;69.70;;;;;;5029071;28;20104;-48
2023/09/22 05:28:34;;;;;;;2.05;0.70;;;17.10;69.80;;;;;;5029260;28;20504;-49
2023/09/22 05:31:04;;;;;;;2.03;0.70;;;17.00;69.80;;;;;;5025290;28;20104;-49
2023/09/22 05:33:33;;;;;;;1.65;0.60;;;17.00;69.70;;;;;;5028057;28;20511;-47
2023/09/22 05:36:00;;;;;;;2.88;0.85;;;17.00;69.80;;;;;;5025654;28;20049;-47
2023/09/22 05:38:26;;;;;;;1.13;0.73;;;17.00;69.70;;;;;;5030481;28;20143;-51
2023/09/22 05:40:53;;;;;;;1.13;0.82;;;16.90;69.70;;;;;;5029330;28;20069;-50
2023/09/22 05:43:22;;;;;;;1.38;0.73;;;16.90;69.90;;;;;;5025174;28;20506;-51
2023/09/22 05:45:54;;;;;;;3.90;0.60;;;16.90;70.00;;;;;;5029828;28;20064;-51
2023/09/22 05:48:21;;;;;;;0.77;0.47;;;16.90;70.10;;;;;;5023839;28;20037;-49
2023/09/22 05:50:56;;;;;;;3.13;0.90;;;16.80;70.00;;;;;;5026224;28;20120;-52
2023/09/22 05:53:25;;;;;;;1.48;0.77;;;16.80;70.00;;;;;;5022868;28;20176;-50
2023/09/22 05:56:08;;;;;;;2.83;1.35;;;16.80;69.90;;;;;;5025487;28;20120;-48
2023/09/22 05:58:39;;;;;;;2.88;0.77;;;16.80;70.00;;;;;;5030658;28;20041;-47
2023/09/22 06:01:10;;;;;;;1.42;0.57;;;16.70;69.90;;;;;;5023142;28;20678;-47
2023/09/22 06:03:40;;;;;;;1.45;0.70;;;16.70;70.00;;;;;;5020790;28;20038;-48
2023/09/22 06:06:08;;;;;;;1.92;0.70;;;16.70;70.00;;;;;;5020805;28;20050;-49
2023/09/22 06:08:39;;;;;;;1.83;0.63;;;16.70;70.10;;;;;;5018936;28;20112;-47
2023/09/22 06:11:07;;;;;;;2.08;0.60;;;16.70;70.10;;;;;;5020383;28;20077;-49
2023/09/22 06:13:34;;;;;;;1.20;0.63;;;16.70;70.20;;;;;;5020962;28;20100;-48
2023/09/22 06:16:02;;;;;;;1.92;0.88;;;16.60;70.30;;;;;;5026534;28;20038;-51
2023/09/22 06:18:29;;;;;;;2.60;1.05;;;16.60;70.20;;;;;;5016177;28;20092;-49
2023/09/22 06:21:00;;;;;;;1.60;0.60;;;16.60;70.30;;;;;;5018440;28;20129;-52
2023/09/22 06:23:28;;;;;;;2.53;0.80;;;16.60;70.30;;;;;;5023103;28;20110;-47
2023/09/22 06:26:01;;;;;;;0.90;0.63;;;16.60;70.40;;;;;;5015994;28;20034;-46
2023/09/22 06:28:29;;;;;;;2.55;0.77;;;16.60;70.60;;;;;;5022754;28;20049;-48
2023/09/22 06:31:00;;;;;;;0.93;0.60;;;16.60;70.50;;;;;;5020687;28;20050;-52
2023/09/22 06:33:30;;;;;;;3.25;0.80;;;16.60;70.70;;;;;;5021394;28;20080;-53
2023/09/22 06:35:58;;;;;;;1.63;0.60;;;16.60;70.60;;;;;;5022534;28;20534;-47
2023/09/22 06:38:25;;;;;;;1.23;0.70;;;16.60;70.60;;;;;;5026536;28;20046;-47
2023/09/22 06:40:55;;;;;;;1.30;0.60;;;16.60;70.70;;;;;;5028944;28;20053;-48
2023/09/22 06:43:25;;;;;;;0.90;0.80;;;16.60;70.70;;;;;;5010367;28;20045;-47
2023/09/22 06:45:53;;;;;;;1.55;0.88;;;16.70;70.70;;;;;;5021732;28;20061;-51
2023/09/22 06:48:22;;;;;;;3.60;0.70;;;16.70;70.90;;;;;;5021572;28;20112;-52
2023/09/22 06:50:51;;;;;;;0.70;0.70;;;16.70;70.90;;;;;;5021155;28;20060;-48
2023/09/22 06:53:23;;;;;;;1.67;0.65;;;16.70;70.90;;;;;;5017936;28;20053;-47
2023/09/22 06:56:20;;;;;;;1.67;0.77;;;16.80;71.60;;;;;;5023719;28;20088;-50
2023/09/22 06:58:53;;;;;;;1.27;0.80;;;16.80;71.10;;;;;;5015012;28;20634;-47
2023/09/22 07:01:20;;;;;;;2.35;1.02;;;16.90;70.80;;;;;;5025122;28;20041;-47
2023/09/22 07:03:48;;;;;;;1.15;0.63;;;16.90;70.70;;;;;;5032441;28;20058;-48
2023/09/22 07:06:16;;;;;;;3.40;0.95;;;16.90;70.70;;;;;;5026718;28;20049;-48
2023/09/22 07:08:45;;;;;;;3.50;0.47;;;17.00;70.60;;;;;;5036159;28;20427;-47
2023/09/22 07:11:13;;;;;;;0.70;0.70;;;17.00;70.60;;;;;;5025429;28;20120;-47
2023/09/22 07:13:40;;;;;;;1.60;0.40;;;17.10;70.60;;;;;;5028331;28;20108;-50
2023/09/22 07:16:08;;;;;;;1.92;1.15;;;17.20;70.50;;;;;;5024053;28;20057;-49
2023/09/22 07:18:35;;;;;;;1.25;0.65;;;17.20;70.40;;;;;;5028430;28;20050;-46
2023/09/22 07:21:02;;;;;;;1.20;0.60;;;17.30;70.50;;;;;;5024215;28;20045;-52
2023/09/22 07:23:32;;;;;;;3.60;0.68;;;17.40;70.40;;;;;;5031151;28;20473;-47
2023/09/22 07:26:04;;;;;;;2.03;0.70;;;17.50;70.20;;;;;;5026610;28;20038;-52
2023/09/22 07:28:31;;;;;;;1.13;0.70;;;17.60;69.90;;;;;;5029565;28;20111;-47
2023/09/22 07:30:59;;;;;;;3.20;0.63;;;17.70;69.50;;;;;;5022367;28;20055;-50
2023/09/22 07:33:31;;;;;;;1.63;0.80;;;17.70;69.20;;;;;;5025006;28;20496;-48
2023/09/22 07:35:59;;;;;;;0.82;0.47;;;17.80;69.00;;;;;;5024540;28;20144;-50
2023/09/22 07:38:29;;;;;;;1.45;0.50;;;17.80;68.90;;;;;;5023598;28;20103;-52
2023/09/22 07:40:56;;;;;;;1.60;0.63;;;17.90;68.40;;;;;;5017204;28;20046;-48
2023/09/22 07:43:28;;;;;;;1.30;0.57;;;17.90;67.90;;;;;;5016237;28;20515;-52
2023/09/22 07:45:56;;;;;;;0.60;0.60;;;18.00;67.80;;;;;;5017731;28;20553;-46
2023/09/22 07:48:24;;;;;;;3.35;0.57;;;18.00;67.80;;;;;;5025163;28;20476;-47
2023/09/22 07:50:52;;;;;;;1.27;0.85;;;17.90;67.80;;;;;;5024468;28;20041;-49
2023/09/22 07:53:20;;;;;;;1.45;0.60;;;17.90;67.70;;;;;;5025962;28;20095;-52
2023/09/22 07:55:47;;;;;;;2.10;0.50;;;18.00;67.50;;;;;;5031136;28;20128;-49
2023/09/22 07:58:14;;;;;;;3.28;0.90;;;18.00;67.60;;;;;;5026732;28;20037;-49
2023/09/22 08:00:46;;;;;;;2.15;0.47;;;18.00;67.50;;;;;;5025110;28;20050;-49
2023/09/22 08:03:14;;;;;;;2.45;0.55;;;17.90;67.20;;;;;;5019640;28;20050;-49
2023/09/22 08:05:41;;;;;;;1.42;0.55;;;17.90;67.00;;;;;;5025774;28;20045;-49
2023/09/22 08:08:09;;;;;;;0.85;0.30;;;17.90;67.60;;;;;;5027972;28;20547;-49
2023/09/22 08:10:38;;;;;;;0.65;0.40;;;17.90;66.80;;;;;;5022723;28;20050;-45
2023/09/22 08:13:08;;;;;;;1.70;0.90;;;18.00;66.80;;;;;;5028006;28;20042;-49
2023/09/22 08:15:37;;;;;;;1.10;0.57;;;18.00;67.20;;;;;;5022182;28;20053;-48
2023/09/22 08:18:07;;;;;;;2.28;0.50;;;18.00;66.80;;;;;;5026193;28;20129;-48
2023/09/22 08:20:34;;;;;;;2.30;0.63;;;18.00;66.70;;;;;;5020477;28;20050;-50
2023/09/22 08:23:01;;;;;;;1.00;0.57;;;18.00;66.40;;;;;;5030672;28;20529;-48
2023/09/22 08:25:28;;;;;;;1.08;0.47;;;18.10;66.60;;;;;;5016596;28;20562;-48
2023/09/22 08:27:56;;;;;;;1.95;0.63;;;18.10;66.40;;;;;;5026141;28;20046;-51
2023/09/22 08:30:23;;;;;;;0.47;0.40;;;18.10;66.20;;;;;;5025179;28;20064;-46
2023/09/22 08:32:51;;;;;;;1.77;0.65;;;18.20;65.90;;;;;;5021828;28;20065;-52
2023/09/22 08:35:18;;;;;;;0.95;0.57;;;18.30;66.30;;;;;;5026274;28;20496;-50
2023/09/22 08:37:45;;;;;;;1.65;0.70;;;18.30;66.10;;;;;;5024142;28;20059;-47
2023/09/22 08:40:17;;;;;;;2.03;0.50;;;18.40;66.20;;;;;;5027043;28;20049;-50
2023/09/22 08:42:48;;;;;;;0.60;0.40;;;18.50;66.20;;;;;;5031179;28;20065;-51
2023/09/22 08:45:15;;;;;;;2.50;0.30;;;18.60;66.50;;;;;;5026587;28;20037;-48
2023/09/22 08:47:45;;;;;;;0.60;0.60;;;18.70;66.00;;;;;;5025901;28;20050;-51
2023/09/22 08:50:17;;;;;;;1.17;0.50;;;18.90;65.40;;;;;;5024295;28;20049;-47
2023/09/22 08:52:49;;;;;;;0.93;0.40;;;19.00;65.10;;;;;;5025318;28;20097;-51
2023/09/22 08:55:16;;;;;;;0.98;0.60;;;19.00;64.90;;;;;;5024144;28;20072;-46
2023/09/22 08:57:44;;;;;;;0.50;0.50;;;19.10;64.40;;;;;;5024677;28;20042;-49
2023/09/22 09:00:20;;;;;;;1.35;0.50;;;19.30;64.40;;;;;;5022247;28;20522;-49
2023/09/22 09:02:50;;;;;;;2.13;0.70;;;19.40;63.60;;;;;;5025564;28;20129;-50
2023/09/22 09:05:24;;;;;;;1.45;0.77;;;19.40;63.60;;;;;;5024903;28;20049;-46
2023/09/22 09:07:51;;;;;;;1.65;0.47;;;19.50;63.30;;;;;;5023447;28;20117;-52
2023/09/22 09:10:29;;;;;;;0.47;0.47;;;19.60;63.20;;;;;;5022427;28;20064;-50
2023/09/22 09:13:00;;;;;;;0.40;0.30;;;19.70;62.40;;;;;;5022680;28;20045;-50
2023/09/22 09:15:29;;;;;;;0.70;0.50;;;19.70;62.80;;;;;;5024783;28;20049;-48
2023/09/22 09:18:04;;;;;;;3.13;0.57;;;19.80;62.00;;;;;;5023062;28;20080;-48
2023/09/22 09:20:35;;;;;;;2.05;0.80;;;19.80;60.90;;;;;;5027167;28;20491;-49
2023/09/22 09:23:31;;;;;;;0.80;0.70;;;19.60;60.60;;;;;;5027245;28;20065;-49
2023/09/22 09:25:57;;;;;;;1.02;0.40;;;19.80;60.80;;;;;;5040045;23;20086;-49
2023/09/22 09:28:24;;;;;;;2.05;0.60;;;19.80;60.90;;;;;;5021586;28;20077;-48
2023/09/22 09:30:54;;;;;;;2.03;0.77;;;19.70;60.90;;;;;;5026535;28;20419;-51
2023/09/22 09:33:27;;;;;;;0.95;0.40;;;19.70;60.80;;;;;;5029793;28;20099;-51
2023/09/22 09:35:55;;;;;;;1.65;0.70;;;19.70;60.40;;;;;;5024467;28;20100;-52
2023/09/22 09:38:29;;;;;;;0.95;0.60;;;19.70;59.90;;;;;;5027881;28;20052;-52
2023/09/22 09:40:57;;;;;;;0.80;0.50;;;19.60;59.60;;;;;;5027362;28;20122;-49
2023/09/22 09:43:25;;;;;;;1.13;0.50;;;19.60;59.40;;;;;;5027226;28;20034;-50
2023/09/22 09:45:57;;;;;;;0.90;0.50;;;19.50;59.60;;;;;;5029748;28;20057;-50
2023/09/22 09:48:27;;;;;;;2.75;1.17;;;19.50;59.50;;;;;;5030752;28;20049;-48
2023/09/22 09:50:58;;;;;;;1.17;0.55;;;19.40;59.40;;;;;;5029419;28;20069;-50
2023/09/22 09:53:37;;;;;;;1.05;0.52;;;19.40;59.30;;;;;;5024790;28;20431;-51
2023/09/22 09:56:05;;;;;;;1.73;0.50;;;19.30;59.40;;;;;;5027659;28;20054;-49
2023/09/22 09:58:34;;;;;;;1.85;0.85;;;19.30;59.70;;;;;;5030580;28;20400;-49
2023/09/22 10:01:07;;;;;;;2.35;0.40;;;19.20;59.40;;;;;;5025925;28;20050;-49
2023/09/22 10:03:36;;;;;;;0.52;0.50;;;19.20;59.30;;;;;;5022465;28;20096;-50
2023/09/22 10:06:10;;;;;;;1.83;0.50;;;19.10;59.40;;;;;;5027726;28;20084;-49
2023/09/22 10:08:37;;;;;;;0.80;0.60;;;19.10;59.30;;;;;;5030158;28;20280;-49
2023/09/22 10:11:07;;;;;;;4.32;0.55;;;19.10;59.70;;;;;;5029399;28;20037;-48
2023/09/22 10:13:35;;;;;;;1.42;0.57;;;19.20;59.70;;;;;;5023586;28;20046;-50
2023/09/22 10:16:04;;;;;;;0.98;0.47;;;19.20;59.70;;;;;;5028998;28;20041;-49
2023/09/22 10:18:54;;;;;;;1.98;0.40;;;19.30;60.20;;;;;;5027599;28;20057;-50
2023/09/22 10:21:46;;;;;;;0.68;0.47;;;19.50;59.80;;;;;;5023897;28;20045;-50
2023/09/22 10:24:13;;;;;;;1.00;0.60;;;19.60;60.40;;;;;;5028521;28;20037;-51
2023/09/22 10:26:55;;;;;;;0.82;0.47;;;19.80;60.30;;;;;;5025259;28;20044;-52
2023/09/22 10:29:37;;;;;;;0.93;0.50;;;19.90;59.30;;;;;;5029507;28;20041;-52
2023/09/22 10:32:18;;;;;;;1.48;0.50;;;20.10;58.60;;;;;;5028917;28;20124;-51
2023/09/22 10:34:53;;;;;;;2.65;0.60;;;20.30;57.80;;;;;;5019965;28;20037;-48
2023/09/22 10:37:22;;;;;;;0.98;0.50;;;20.30;57.80;;;;;;5029933;28;20072;-50
2023/09/22 10:39:56;;;;;;;1.35;0.60;;;20.30;57.10;;;;;;5027025;28;20045;-50
2023/09/22 10:42:24;;;;;;;3.03;1.10;;;20.20;56.90;;;;;;5024367;28;20048;-51
2023/09/22 10:45:03;;;;;;;1.33;0.50;;;20.10;56.80;;;;;;5025767;28;20057;-51
2023/09/22 10:47:39;;;;;;;2.83;0.73;;;20.00;56.50;;;;;;5029470;28;20451;-52
2023/09/22 10:50:10;;;;;;;2.03;0.63;;;19.90;56.40;;;;;;5029099;28;20041;-51
2023/09/22 10:52:37;;;;;;;2.75;0.55;;;19.90;57.20;;;;;;5026910;28;20042;-50
2023/09/22 10:55:05;;;;;;;1.83;0.50;;;19.80;57.00;;;;;;5028808;28;20041;-52
2023/09/22 10:57:33;;;;;;;2.65;0.85;;;19.70;57.10;;;;;;5029173;28;20469;-52
2023/09/22 11:00:01;;;;;;;0.82;0.55;;;19.70;57.00;;;;;;5024734;28;20050;-52
2023/09/22 11:02:28;;;;;;;0.95;0.55;;;19.70;57.50;;;;;;5027438;28;20038;-49
2023/09/22 11:04:56;;;;;;;0.90;0.43;;;19.70;57.70;;;;;;5025376;28;20049;-47
2023/09/22 11:07:43;;;;;;;1.02;0.50;;;19.80;58.30;;;;;;5021192;28;20136;-50
2023/09/22 11:10:21;;;;;;;0.60;0.50;;;20.00;56.90;;;;;;5028932;28;20044;-48
2023/09/22 11:12:54;;;;;;;2.03;0.70;;;20.10;56.80;;;;;;5022578;28;20132;-51
2023/09/22 11:15:23;;;;;;;2.38;0.75;;;20.20;56.60;;;;;;5025711;28;20052;-47
2023/09/22 11:17:50;;;;;;;1.50;0.57;;;20.30;56.30;;;;;;5029443;28;20104;-49
2023/09/22 11:20:26;;;;;;;1.23;0.50;;;20.40;56.70;;;;;;5021787;28;20037;-50
2023/09/22 11:22:55;;;;;;;0.47;0.47;;;20.50;56.20;;;;;;5024769;28;20060;-49
2023/09/22 11:25:24;;;;;;;0.60;0.40;;;20.60;56.10;;;;;;5028129;28;20071;-47
2023/09/22 11:27:52;;;;;;;1.80;0.50;;;20.70;55.70;;;;;;5027905;28;20061;-53
2023/09/22 11:30:26;;;;;;;2.63;1.10;;;20.70;54.80;;;;;;5020510;28;20045;-50
2023/09/22 11:32:54;;;;;;;1.67;0.38;;;20.80;54.60;;;;;;5024661;28;20045;-50
2023/09/22 11:35:37;;;;;;;1.00;0.50;;;20.90;54.50;;;;;;5026002;28;20411;-49
2023/09/22 11:38:31;;;;;;;1.83;0.50;;;20.90;53.90;;;;;;5028050;28;20037;-48
2023/09/22 11:41:10;;;;;;;1.23;0.57;;;20.90;54.00;;;;;;5023238;28;20038;-50
2023/09/22 11:43:41;;;;;;;1.52;0.47;;;20.90;54.40;;;;;;5018938;28;20042;-51
2023/09/22 11:46:15;;;;;;;2.45;0.40;;;20.90;54.30;;;;;;5029296;28;20439;-50
2023/09/22 11:48:56;;;;;;;1.58;0.77;;;20.90;54.50;;;;;;5029267;28;20053;-51
2023/09/22 11:51:41;;;;;;;1.63;0.47;;;20.90;54.30;;;;;;5027134;28;20450;-50
2023/09/22 11:54:09;;;;;;;2.85;1.13;;;20.90;54.10;;;;;;5028482;28;20495;-48
2023/09/22 11:56:36;;;;;;;1.73;0.55;;;20.90;53.90;;;;;;5030375;28;20046;-52
2023/09/22 11:59:35;;;;;;;1.15;0.60;;;20.90;54.00;;;;;;5032084;28;20068;-48
2023/09/22 12:02:06;;;;;;;0.82;0.70;;;20.80;53.60;;;;;;5028070;28;20140;-49
2023/09/22 12:04:37;;;;;;;3.60;1.40;;;20.90;54.40;;;;;;5025902;28;20124;-50
2023/09/22 12:07:05;;;;;;;1.02;0.50;;;20.90;55.00;;;;;;5027128;28;20033;-50
2023/09/22 12:09:32;;;;;;;1.08;0.50;;;21.00;55.20;;;;;;5019926;28;20052;-48
2023/09/22 12:11:59;;;;;;;2.22;1.02;;;21.10;54.30;;;;;;5028640;28;20041;-49
2023/09/22 12:14:26;;;;;;;0.90;0.47;;;21.20;53.50;;;;;;5022728;28;20092;-51
2023/09/22 12:16:53;;;;;;;0.82;0.50;;;21.30;53.40;;;;;;5031319;28;20048;-51
2023/09/22 12:19:20;;;;;;;1.85;0.82;;;21.40;52.70;;;;;;5029692;28;20045;-52
2023/09/22 12:21:47;;;;;;;1.30;0.55;;;21.50;52.30;;;;;;5028855;28;20037;-50
2023/09/22 12:24:14;;;;;;;0.47;0.40;;;21.50;52.50;;;;;;5031184;28;20064;-48
2023/09/22 12:26:41;;;;;;;3.67;0.68;;;21.60;52.20;;;;;;5029839;28;20380;-50
2023/09/22 12:29:08;;;;;;;0.40;0.40;;;21.70;52.80;;;;;;5027599;28;20041;-51
2023/09/22 12:31:36;;;;;;;0.90;0.60;;;21.80;52.30;;;;;;5031136;28;20044;-51
2023/09/22 12:34:03;;;;;;;0.95;0.70;;;21.90;51.60;;;;;;5028201;28;20038;-51
2023/09/22 12:36:30;;;;;;;0.73;0.50;;;22.00;51.70;;;;;;5030342;28;20103;-51
2023/09/22 12:38:58;;;;;;;2.13;0.40;;;22.10;51.40;;;;;;5031379;28;20041;-49
2023/09/22 12:41:25;;;;;;;0.63;0.50;;;22.20;51.60;;;;;;5029866;28;20059;-51
2023/09/22 12:43:51;;;;;;;0.50;0.40;;;22.30;51.90;;;;;;5030535;28;20088;-51
2023/09/22 12:46:20;;;;;;;0.60;0.60;;;22.40;51.30;;;;;;5029261;28;20092;-53
2023/09/22 12:48:47;;;;;;;1.05;0.50;;;22.60;50.70;;;;;;5029556;28;20121;-52
2023/09/22 12:51:14;;;;;;;1.33;0.60;;;22.70;50.30;;;;;;5028851;28;20069;-51
2023/09/22 12:53:41;;;;;;;1.42;0.75;;;22.70;50.30;;;;;;5028628;28;20123;-47
2023/09/22 12:56:12;;;;;;;3.38;0.75;;;22.90;49.90;;;;;;5030351;28;20076;-48
2023/09/22 12:58:38;;;;;;;1.52;0.85;;;23.00;49.60;;;;;;5029732;28;20045;-50
2023/09/22 13:01:13;;;;;;;1.13;0.50;;;23.10;50.20;;;;;;5027196;28;20065;-51